sensor_id;sensor_type;location;lat;lon;timestamp;temperature;humidity
65836;SHT30;52595;51.608;7.216;2023-05-07T00:01:02;13.34;99.99
65836;SHT30;52595;51.608;7.216;2023-05-07T00:03:28;13.34;99.99
65836;SHT30;52595;51.608;7.216;2023-05-07T00:05:54;13.33;99.99
65836;SHT30;52595;51.608;7.216;2023-05-07T00:08:19;13.35;99.99
65836;SHT30;52595;51.608;7.216;2023-05-07T00:10:45;13.35;99.99
65836;SHT30;52595;51.608;7.216;2023-05-07T00:13:11;13.35;99.99
65836;SHT30;52595;51.608;7.216;2023-05-07T00:15:37;13.34;99.99
65836;SHT30;52595;51.608;7.216;2023-05-07T00:18:02;13.35;99.99
65836;SHT30;52595;51.608;7.216;2023-05-07T00:20:28;13.33;99.99
65836;SHT30;52595;51.608;7.216;2023-05-07T00:22:53;13.33;99.99
65836;SHT30;52595;51.608;7.216;2023-05-07T00:25:19;13.34;99.99
65836;SHT30;52595;51.608;7.216;2023-05-07T00:27:45;13.35;99.99
65836;SHT30;52595;51.608;7.216;2023-05-07T00:30:10;13.30;99.99
65836;SHT30;52595;51.608;7.216;2023-05-07T00:32:36;13.33;99.99
65836;SHT30;52595;51.608;7.216;2023-05-07T00:35:03;13.31;99.99
65836;SHT30;52595;51.608;7.216;2023-05-07T00:37:28;13.31;99.99
65836;SHT30;52595;51.608;7.216;2023-05-07T00:39:53;13.31;99.99
65836;SHT30;52595;51.608;7.216;2023-05-07T00:42:19;13.31;99.99
65836;SHT30;52595;51.608;7.216;2023-05-07T00:44:44;13.31;99.99
65836;SHT30;52595;51.608;7.216;2023-05-07T00:47:10;13.30;99.99
65836;SHT30;52595;51.608;7.216;2023-05-07T00:49:41;13.31;99.99
65836;SHT30;52595;51.608;7.216;2023-05-07T00:52:09;13.31;99.99
65836;SHT30;52595;51.608;7.216;2023-05-07T00:54:36;13.27;99.99
65836;SHT30;52595;51.608;7.216;2023-05-07T00:57:02;13.24;99.99
65836;SHT30;52595;51.608;7.216;2023-05-07T00:59:29;13.25;99.99
65836;SHT30;52595;51.608;7.216;2023-05-07T01:01:55;13.21;99.99
65836;SHT30;52595;51.608;7.216;2023-05-07T01:04:20;13.17;99.99
65836;SHT30;52595;51.608;7.216;2023-05-07T01:06:46;13.15;99.99
65836;SHT30;52595;51.608;7.216;2023-05-07T01:09:12;13.14;99.99
65836;SHT30;52595;51.608;7.216;2023-05-07T01:11:38;13.11;99.99
65836;SHT30;52595;51.608;7.216;2023-05-07T01:14:03;13.06;99.99
65836;SHT30;52595;51.608;7.216;2023-05-07T01:16:29;13.08;99.99
65836;SHT30;52595;51.608;7.216;2023-05-07T01:18:55;13.10;99.99
65836;SHT30;52595;51.608;7.216;2023-05-07T01:21:25;13.10;99.99
65836;SHT30;52595;51.608;7.216;2023-05-07T01:23:55;13.15;99.99
65836;SHT30;52595;51.608;7.216;2023-05-07T01:26:21;13.18;99.99
65836;SHT30;52595;51.608;7.216;2023-05-07T01:28:48;13.21;99.99
65836;SHT30;52595;51.608;7.216;2023-05-07T01:31:16;13.24;99.99
65836;SHT30;52595;51.608;7.216;2023-05-07T01:33:43;13.20;99.99
65836;SHT30;52595;51.608;7.216;2023-05-07T01:36:11;13.18;99.99
65836;SHT30;52595;51.608;7.216;2023-05-07T01:38:37;13.20;99.99
65836;SHT30;52595;51.608;7.216;2023-05-07T01:41:03;13.24;99.99
65836;SHT30;52595;51.608;7.216;2023-05-07T01:43:30;13.21;99.99
65836;SHT30;52595;51.608;7.216;2023-05-07T01:45:57;13.20;99.99
65836;SHT30;52595;51.608;7.216;2023-05-07T01:48:24;13.20;99.99
65836;SHT30;52595;51.608;7.216;2023-05-07T01:50:50;13.20;99.99
65836;SHT30;52595;51.608;7.216;2023-05-07T01:53:16;13.20;99.99
65836;SHT30;52595;51.608;7.216;2023-05-07T01:55:41;13.18;99.99
65836;SHT30;52595;51.608;7.216;2023-05-07T01:58:07;13.20;99.99
65836;SHT30;52595;51.608;7.216;2023-05-07T02:00:32;13.18;99.99
65836;SHT30;52595;51.608;7.216;2023-05-07T02:02:58;13.15;99.99
65836;SHT30;52595;51.608;7.216;2023-05-07T02:05:23;13.14;99.99
65836;SHT30;52595;51.608;7.216;2023-05-07T02:07:49;13.11;99.99
65836;SHT30;52595;51.608;7.216;2023-05-07T02:10:14;13.11;99.99
65836;SHT30;52595;51.608;7.216;2023-05-07T02:12:40;13.08;99.99
65836;SHT30;52595;51.608;7.216;2023-05-07T02:15:06;13.10;99.99
65836;SHT30;52595;51.608;7.216;2023-05-07T02:17:31;13.04;99.99
65836;SHT30;52595;51.608;7.216;2023-05-07T02:19:58;13.03;99.99
65836;SHT30;52595;51.608;7.216;2023-05-07T02:22:23;13.04;99.99
65836;SHT30;52595;51.608;7.216;2023-05-07T02:24:49;13.04;99.99
65836;SHT30;52595;51.608;7.216;2023-05-07T02:27:14;13.06;99.99
65836;SHT30;52595;51.608;7.216;2023-05-07T02:29:40;13.04;99.99
65836;SHT30;52595;51.608;7.216;2023-05-07T02:32:05;13.06;99.99
65836;SHT30;52595;51.608;7.216;2023-05-07T02:34:31;13.07;99.99
65836;SHT30;52595;51.608;7.216;2023-05-07T02:36:56;13.06;99.99
65836;SHT30;52595;51.608;7.216;2023-05-07T02:39:21;13.04;99.99
65836;SHT30;52595;51.608;7.216;2023-05-07T02:41:47;13.04;99.99
65836;SHT30;52595;51.608;7.216;2023-05-07T02:44:12;13.02;99.99
65836;SHT30;52595;51.608;7.216;2023-05-07T02:46:38;13.03;99.99
65836;SHT30;52595;51.608;7.216;2023-05-07T02:49:03;13.00;99.99
65836;SHT30;52595;51.608;7.216;2023-05-07T02:51:30;13.02;99.99
65836;SHT30;52595;51.608;7.216;2023-05-07T02:53:55;13.02;99.99
65836;SHT30;52595;51.608;7.216;2023-05-07T02:56:21;13.00;99.99
65836;SHT30;52595;51.608;7.216;2023-05-07T02:58:46;13.02;99.99
65836;SHT30;52595;51.608;7.216;2023-05-07T03:01:12;12.99;99.99
65836;SHT30;52595;51.608;7.216;2023-05-07T03:03:39;12.99;99.99
65836;SHT30;52595;51.608;7.216;2023-05-07T03:06:05;12.96;99.99
65836;SHT30;52595;51.608;7.216;2023-05-07T03:08:30;12.94;99.99
65836;SHT30;52595;51.608;7.216;2023-05-07T03:10:56;12.94;99.99
65836;SHT30;52595;51.608;7.216;2023-05-07T03:13:21;12.92;99.99
65836;SHT30;52595;51.608;7.216;2023-05-07T03:15:47;12.92;99.99
65836;SHT30;52595;51.608;7.216;2023-05-07T03:18:12;12.93;99.99
65836;SHT30;52595;51.608;7.216;2023-05-07T03:20:37;12.92;99.99
65836;SHT30;52595;51.608;7.216;2023-05-07T03:23:03;12.92;99.99
65836;SHT30;52595;51.608;7.216;2023-05-07T03:25:28;12.93;99.99
65836;SHT30;52595;51.608;7.216;2023-05-07T03:27:55;12.93;99.99
65836;SHT30;52595;51.608;7.216;2023-05-07T03:30:21;12.90;99.99
65836;SHT30;52595;51.608;7.216;2023-05-07T03:32:46;12.89;99.99
65836;SHT30;52595;51.608;7.216;2023-05-07T03:35:12;12.86;99.99
65836;SHT30;52595;51.608;7.216;2023-05-07T03:37:38;12.89;99.99
65836;SHT30;52595;51.608;7.216;2023-05-07T03:40:04;12.86;99.99
65836;SHT30;52595;51.608;7.216;2023-05-07T03:42:30;12.84;99.99
65836;SHT30;52595;51.608;7.216;2023-05-07T03:44:55;12.86;99.99
65836;SHT30;52595;51.608;7.216;2023-05-07T03:47:21;12.84;99.99
65836;SHT30;52595;51.608;7.216;2023-05-07T03:49:46;12.82;99.99
65836;SHT30;52595;51.608;7.216;2023-05-07T03:52:13;12.83;99.99
65836;SHT30;52595;51.608;7.216;2023-05-07T03:54:38;12.82;99.99
65836;SHT30;52595;51.608;7.216;2023-05-07T03:57:04;12.80;99.99
65836;SHT30;52595;51.608;7.216;2023-05-07T03:59:29;12.76;99.99
65836;SHT30;52595;51.608;7.216;2023-05-07T04:01:55;12.82;99.99
65836;SHT30;52595;51.608;7.216;2023-05-07T04:04:20;12.80;99.99
65836;SHT30;52595;51.608;7.216;2023-05-07T04:06:46;12.79;99.99
65836;SHT30;52595;51.608;7.216;2023-05-07T04:09:11;12.76;99.99
65836;SHT30;52595;51.608;7.216;2023-05-07T04:11:37;12.76;99.99
65836;SHT30;52595;51.608;7.216;2023-05-07T04:14:02;12.77;99.99
65836;SHT30;52595;51.608;7.216;2023-05-07T04:16:28;12.77;99.99
65836;SHT30;52595;51.608;7.216;2023-05-07T04:18:53;12.79;99.99
65836;SHT30;52595;51.608;7.216;2023-05-07T04:21:20;12.80;99.99
65836;SHT30;52595;51.608;7.216;2023-05-07T04:23:46;12.83;99.99
65836;SHT30;52595;51.608;7.216;2023-05-07T04:26:12;12.82;99.99
65836;SHT30;52595;51.608;7.216;2023-05-07T04:28:38;12.87;99.99
65836;SHT30;52595;51.608;7.216;2023-05-07T04:31:04;12.92;99.99
65836;SHT30;52595;51.608;7.216;2023-05-07T04:33:29;12.92;99.99
65836;SHT30;52595;51.608;7.216;2023-05-07T04:35:55;12.96;99.99
65836;SHT30;52595;51.608;7.216;2023-05-07T04:38:20;12.99;99.99
65836;SHT30;52595;51.608;7.216;2023-05-07T04:40:46;12.99;99.99
65836;SHT30;52595;51.608;7.216;2023-05-07T04:43:12;13.03;99.99
65836;SHT30;52595;51.608;7.216;2023-05-07T04:45:38;13.03;99.99
65836;SHT30;52595;51.608;7.216;2023-05-07T04:48:06;13.10;99.99
65836;SHT30;52595;51.608;7.216;2023-05-07T04:50:31;13.11;99.99
65836;SHT30;52595;51.608;7.216;2023-05-07T04:52:57;13.20;99.97
65836;SHT30;52595;51.608;7.216;2023-05-07T04:55:22;13.23;99.76
65836;SHT30;52595;51.608;7.216;2023-05-07T04:57:47;13.27;99.60
65836;SHT30;52595;51.608;7.216;2023-05-07T05:00:13;13.34;99.50
65836;SHT30;52595;51.608;7.216;2023-05-07T05:02:44;13.33;99.47
65836;SHT30;52595;51.608;7.216;2023-05-07T05:05:10;13.34;99.26
65836;SHT30;52595;51.608;7.216;2023-05-07T05:07:35;13.30;98.97
65836;SHT30;52595;51.608;7.216;2023-05-07T05:10:01;13.30;98.95
65836;SHT30;52595;51.608;7.216;2023-05-07T05:12:29;13.28;98.80
65836;SHT30;52595;51.608;7.216;2023-05-07T05:14:54;13.30;98.70
65836;SHT30;52595;51.608;7.216;2023-05-07T05:17:20;13.28;98.71
65836;SHT30;52595;51.608;7.216;2023-05-07T05:19:45;13.28;98.70
65836;SHT30;52595;51.608;7.216;2023-05-07T05:22:10;13.27;98.55
65836;SHT30;52595;51.608;7.216;2023-05-07T05:24:36;13.25;98.42
65836;SHT30;52595;51.608;7.216;2023-05-07T05:27:01;13.25;98.31
65836;SHT30;52595;51.608;7.216;2023-05-07T05:29:27;13.23;98.19
65836;SHT30;52595;51.608;7.216;2023-05-07T05:31:52;13.24;98.16
65836;SHT30;52595;51.608;7.216;2023-05-07T05:34:18;13.24;98.08
65836;SHT30;52595;51.608;7.216;2023-05-07T05:36:44;13.27;98.08
65836;SHT30;52595;51.608;7.216;2023-05-07T05:39:10;13.28;97.97
65836;SHT30;52595;51.608;7.216;2023-05-07T05:41:35;13.37;97.96
65836;SHT30;52595;51.608;7.216;2023-05-07T05:44:01;13.41;97.84
65836;SHT30;52595;51.608;7.216;2023-05-07T05:46:26;13.45;97.78
65836;SHT30;52595;51.608;7.216;2023-05-07T05:48:51;13.50;97.57
65836;SHT30;52595;51.608;7.216;2023-05-07T05:51:17;13.55;97.41
65836;SHT30;52595;51.608;7.216;2023-05-07T05:53:43;13.61;97.27
65836;SHT30;52595;51.608;7.216;2023-05-07T05:56:08;13.64;97.22
65836;SHT30;52595;51.608;7.216;2023-05-07T05:58:34;13.71;96.81
65836;SHT30;52595;51.608;7.216;2023-05-07T06:00:59;13.77;96.79
65836;SHT30;52595;51.608;7.216;2023-05-07T06:03:25;13.90;96.68
65836;SHT30;52595;51.608;7.216;2023-05-07T06:05:51;14.01;96.58
65836;SHT30;52595;51.608;7.216;2023-05-07T06:08:16;14.13;96.35
65836;SHT30;52595;51.608;7.216;2023-05-07T06:10:42;14.28;96.02
65836;SHT30;52595;51.608;7.216;2023-05-07T06:13:07;14.44;95.81
65836;SHT30;52595;51.608;7.216;2023-05-07T06:15:33;14.60;95.29
65836;SHT30;52595;51.608;7.216;2023-05-07T06:17:58;14.73;94.69
65836;SHT30;52595;51.608;7.216;2023-05-07T06:20:23;14.95;94.62
65836;SHT30;52595;51.608;7.216;2023-05-07T06:22:49;15.14;93.92
65836;SHT30;52595;51.608;7.216;2023-05-07T06:25:14;15.15;93.26
65836;SHT30;52595;51.608;7.216;2023-05-07T06:27:40;15.31;93.23
65836;SHT30;52595;51.608;7.216;2023-05-07T06:30:06;15.39;92.91
65836;SHT30;52595;51.608;7.216;2023-05-07T06:32:32;15.54;92.67
65836;SHT30;52595;51.608;7.216;2023-05-07T06:34:57;15.77;92.48
65836;SHT30;52595;51.608;7.216;2023-05-07T06:37:22;15.77;91.98
65836;SHT30;52595;51.608;7.216;2023-05-07T06:39:48;15.89;91.94
65836;SHT30;52595;51.608;7.216;2023-05-07T06:42:13;16.03;91.59
65836;SHT30;52595;51.608;7.216;2023-05-07T06:44:39;16.06;91.59
65836;SHT30;52595;51.608;7.216;2023-05-07T06:47:04;16.02;91.83
65836;SHT30;52595;51.608;7.216;2023-05-07T06:49:30;16.09;91.73
65836;SHT30;52595;51.608;7.216;2023-05-07T06:51:56;16.19;91.30
65836;SHT30;52595;51.608;7.216;2023-05-07T06:54:22;16.10;91.32
65836;SHT30;52595;51.608;7.216;2023-05-07T06:56:47;16.17;90.85
65836;SHT30;52595;51.608;7.216;2023-05-07T06:59:13;16.26;90.37
65836;SHT30;52595;51.608;7.216;2023-05-07T07:01:38;16.19;90.37
65836;SHT30;52595;51.608;7.216;2023-05-07T07:04:04;16.23;91.23
65836;SHT30;52595;51.608;7.216;2023-05-07T07:06:29;16.26;90.87
65836;SHT30;52595;51.608;7.216;2023-05-07T07:08:57;16.20;90.10
65836;SHT30;52595;51.608;7.216;2023-05-07T07:11:22;16.42;90.26
65836;SHT30;52595;51.608;7.216;2023-05-07T07:13:47;16.61;89.93
65836;SHT30;52595;51.608;7.216;2023-05-07T07:16:13;16.80;89.46
65836;SHT30;52595;51.608;7.216;2023-05-07T07:18:38;16.81;89.83
65836;SHT30;52595;51.608;7.216;2023-05-07T07:21:04;16.97;89.23
65836;SHT30;52595;51.608;7.216;2023-05-07T07:23:29;16.98;88.74
65836;SHT30;52595;51.608;7.216;2023-05-07T07:25:55;16.80;89.53
65836;SHT30;52595;51.608;7.216;2023-05-07T07:28:21;16.78;89.32
65836;SHT30;52595;51.608;7.216;2023-05-07T07:30:46;16.75;89.56
65836;SHT30;52595;51.608;7.216;2023-05-07T07:33:12;16.75;89.12
65836;SHT30;52595;51.608;7.216;2023-05-07T07:35:37;16.80;88.29
65836;SHT30;52595;51.608;7.216;2023-05-07T07:38:03;16.80;88.39
65836;SHT30;52595;51.608;7.216;2023-05-07T07:40:28;16.84;88.60
65836;SHT30;52595;51.608;7.216;2023-05-07T07:42:54;16.92;88.44
65836;SHT30;52595;51.608;7.216;2023-05-07T07:45:20;16.75;88.70
65836;SHT30;52595;51.608;7.216;2023-05-07T07:47:46;16.64;88.68
65836;SHT30;52595;51.608;7.216;2023-05-07T07:50:11;16.65;88.80
65836;SHT30;52595;51.608;7.216;2023-05-07T07:52:37;16.94;89.31
65836;SHT30;52595;51.608;7.216;2023-05-07T07:55:02;17.17;88.67
65836;SHT30;52595;51.608;7.216;2023-05-07T07:57:28;17.55;87.56
65836;SHT30;52595;51.608;7.216;2023-05-07T07:59:54;17.78;86.69
65836;SHT30;52595;51.608;7.216;2023-05-07T08:02:19;17.72;86.68
65836;SHT30;52595;51.608;7.216;2023-05-07T08:04:45;17.61;85.94
65836;SHT30;52595;51.608;7.216;2023-05-07T08:07:10;17.75;86.10
65836;SHT30;52595;51.608;7.216;2023-05-07T08:09:39;17.82;85.92
65836;SHT30;52595;51.608;7.216;2023-05-07T08:12:06;17.72;85.85
65836;SHT30;52595;51.608;7.216;2023-05-07T08:14:33;17.53;85.95
65836;SHT30;52595;51.608;7.216;2023-05-07T08:16:58;17.63;85.93
65836;SHT30;52595;51.608;7.216;2023-05-07T08:19:23;17.78;85.47
65836;SHT30;52595;51.608;7.216;2023-05-07T08:21:49;17.72;85.84
65836;SHT30;52595;51.608;7.216;2023-05-07T08:24:15;17.83;86.14
65836;SHT30;52595;51.608;7.216;2023-05-07T08:26:41;17.85;85.76
65836;SHT30;52595;51.608;7.216;2023-05-07T08:29:07;18.14;85.36
65836;SHT30;52595;51.608;7.216;2023-05-07T08:31:33;18.17;84.13
65836;SHT30;52595;51.608;7.216;2023-05-07T08:33:58;18.43;84.40
65836;SHT30;52595;51.608;7.216;2023-05-07T08:36:25;18.44;84.13
65836;SHT30;52595;51.608;7.216;2023-05-07T08:38:51;18.53;83.50
65836;SHT30;52595;51.608;7.216;2023-05-07T08:41:17;18.68;83.45
65836;SHT30;52595;51.608;7.216;2023-05-07T08:43:48;18.96;83.16
65836;SHT30;52595;51.608;7.216;2023-05-07T08:46:20;18.83;83.05
65836;SHT30;52595;51.608;7.216;2023-05-07T08:48:49;19.04;82.03
65836;SHT30;52595;51.608;7.216;2023-05-07T08:51:20;19.05;82.15
65836;SHT30;52595;51.608;7.216;2023-05-07T08:53:46;18.95;81.94
65836;SHT30;52595;51.608;7.216;2023-05-07T08:56:14;18.84;82.55
65836;SHT30;52595;51.608;7.216;2023-05-07T08:58:42;18.81;82.28
65836;SHT30;52595;51.608;7.216;2023-05-07T09:01:09;18.99;82.60
65836;SHT30;52595;51.608;7.216;2023-05-07T09:03:37;19.30;82.31
65836;SHT30;52595;51.608;7.216;2023-05-07T09:06:03;19.42;81.37
65836;SHT30;52595;51.608;7.216;2023-05-07T09:08:28;19.40;81.47
65836;SHT30;52595;51.608;7.216;2023-05-07T09:10:54;19.53;80.58
65836;SHT30;52595;51.608;7.216;2023-05-07T09:13:20;19.66;80.44
65836;SHT30;52595;51.608;7.216;2023-05-07T09:15:45;19.45;80.09
65836;SHT30;52595;51.608;7.216;2023-05-07T09:18:12;19.84;79.90
65836;SHT30;52595;51.608;7.216;2023-05-07T09:20:38;19.96;80.20
65836;SHT30;52595;51.608;7.216;2023-05-07T09:23:03;19.89;80.68
65836;SHT30;52595;51.608;7.216;2023-05-07T09:25:30;20.01;79.76
65836;SHT30;52595;51.608;7.216;2023-05-07T09:27:55;19.89;79.33
65836;SHT30;52595;51.608;7.216;2023-05-07T09:30:21;19.96;80.13
65836;SHT30;52595;51.608;7.216;2023-05-07T09:32:46;20.40;79.04
65836;SHT30;52595;51.608;7.216;2023-05-07T09:35:17;20.88;78.13
65836;SHT30;52595;51.608;7.216;2023-05-07T09:37:43;21.12;77.08
65836;SHT30;52595;51.608;7.216;2023-05-07T09:40:23;21.02;74.14
65836;SHT30;52595;51.608;7.216;2023-05-07T09:42:49;20.91;76.07
65836;SHT30;52595;51.608;7.216;2023-05-07T09:45:35;21.12;75.19
65836;SHT30;52595;51.608;7.216;2023-05-07T09:48:04;21.35;75.69
65836;SHT30;52595;51.608;7.216;2023-05-07T09:50:42;21.69;74.93
65836;SHT30;52595;51.608;7.216;2023-05-07T09:53:11;21.59;74.06
65836;SHT30;52595;51.608;7.216;2023-05-07T09:55:37;21.26;75.71
65836;SHT30;52595;51.608;7.216;2023-05-07T09:58:04;21.42;76.26
65836;SHT30;52595;51.608;7.216;2023-05-07T10:00:31;21.35;76.60
65836;SHT30;52595;51.608;7.216;2023-05-07T10:02:57;21.28;75.99
65836;SHT30;52595;51.608;7.216;2023-05-07T10:05:23;21.20;74.91
65836;SHT30;52595;51.608;7.216;2023-05-07T10:07:50;21.33;75.66
65836;SHT30;52595;51.608;7.216;2023-05-07T10:10:17;21.60;75.26
65836;SHT30;52595;51.608;7.216;2023-05-07T10:12:43;21.26;74.41
65836;SHT30;52595;51.608;7.216;2023-05-07T10:15:09;21.53;74.20
65836;SHT30;52595;51.608;7.216;2023-05-07T10:17:39;22.01;72.68
65836;SHT30;52595;51.608;7.216;2023-05-07T10:20:06;21.96;72.56
65836;SHT30;52595;51.608;7.216;2023-05-07T10:22:37;22.10;72.94
65836;SHT30;52595;51.608;7.216;2023-05-07T10:25:06;22.13;71.61
65836;SHT30;52595;51.608;7.216;2023-05-07T10:27:34;22.40;71.79
65836;SHT30;52595;51.608;7.216;2023-05-07T10:30:29;22.31;71.88
65836;SHT30;52595;51.608;7.216;2023-05-07T10:32:59;22.41;71.10
65836;SHT30;52595;51.608;7.216;2023-05-07T10:35:32;22.65;70.32
65836;SHT30;52595;51.608;7.216;2023-05-07T10:38:01;22.66;69.25
65836;SHT30;52595;51.608;7.216;2023-05-07T10:40:27;22.76;69.32
65836;SHT30;52595;51.608;7.216;2023-05-07T10:42:59;22.98;69.21
65836;SHT30;52595;51.608;7.216;2023-05-07T10:45:26;23.39;68.91
65836;SHT30;52595;51.608;7.216;2023-05-07T10:48:14;23.43;68.41
65836;SHT30;52595;51.608;7.216;2023-05-07T10:50:44;23.53;67.29
65836;SHT30;52595;51.608;7.216;2023-05-07T10:53:21;23.53;67.33
65836;SHT30;52595;51.608;7.216;2023-05-07T10:55:51;23.42;66.85
65836;SHT30;52595;51.608;7.216;2023-05-07T10:58:29;23.77;67.15
65836;SHT30;52595;51.608;7.216;2023-05-07T11:00:59;23.98;66.28
65836;SHT30;52595;51.608;7.216;2023-05-07T11:03:25;24.92;64.11
65836;SHT30;52595;51.608;7.216;2023-05-07T11:08:55;25.41;62.34
65836;SHT30;52595;51.608;7.216;2023-05-07T11:12:00;26.08;60.33
65836;SHT30;52595;51.608;7.216;2023-05-07T11:14:54;26.42;59.34
65836;SHT30;52595;51.608;7.216;2023-05-07T11:17:19;26.25;59.98
65836;SHT30;52595;51.608;7.216;2023-05-07T11:19:52;25.87;60.21
65836;SHT30;52595;51.608;7.216;2023-05-07T11:25:02;26.14;57.89
65836;SHT30;52595;51.608;7.216;2023-05-07T11:27:29;26.18;57.65
65836;SHT30;52595;51.608;7.216;2023-05-07T11:29:55;26.24;57.02
65836;SHT30;52595;51.608;7.216;2023-05-07T11:32:27;26.96;58.42
65836;SHT30;52595;51.608;7.216;2023-05-07T11:34:54;27.17;56.47
65836;SHT30;52595;51.608;7.216;2023-05-07T11:37:21;26.95;55.17
65836;SHT30;52595;51.608;7.216;2023-05-07T11:39:47;27.23;56.51
65836;SHT30;52595;51.608;7.216;2023-05-07T11:42:33;27.54;55.43
65836;SHT30;52595;51.608;7.216;2023-05-07T11:44:59;27.46;54.18
65836;SHT30;52595;51.608;7.216;2023-05-07T11:47:25;27.97;54.19
65836;SHT30;52595;51.608;7.216;2023-05-07T11:49:53;27.46;55.09
65836;SHT30;52595;51.608;7.216;2023-05-07T11:52:19;27.77;54.60
65836;SHT30;52595;51.608;7.216;2023-05-07T11:55:03;28.77;53.14
65836;SHT30;52595;51.608;7.216;2023-05-07T11:57:29;29.33;52.20
65836;SHT30;52595;51.608;7.216;2023-05-07T11:59:58;29.81;50.50
65836;SHT30;52595;51.608;7.216;2023-05-07T12:02:24;29.77;50.43
65836;SHT30;52595;51.608;7.216;2023-05-07T12:04:50;29.35;50.79
65836;SHT30;52595;51.608;7.216;2023-05-07T12:07:16;29.35;50.47
65836;SHT30;52595;51.608;7.216;2023-05-07T12:09:42;28.04;52.96
65836;SHT30;52595;51.608;7.216;2023-05-07T12:12:08;27.91;53.90
65836;SHT30;52595;51.608;7.216;2023-05-07T12:14:40;27.46;55.17
65836;SHT30;52595;51.608;7.216;2023-05-07T12:17:07;27.00;55.34
65836;SHT30;52595;51.608;7.216;2023-05-07T12:19:33;26.65;56.50
65836;SHT30;52595;51.608;7.216;2023-05-07T12:21:59;26.69;55.31
65836;SHT30;52595;51.608;7.216;2023-05-07T12:24:24;26.93;55.47
65836;SHT30;52595;51.608;7.216;2023-05-07T12:26:50;27.03;54.71
65836;SHT30;52595;51.608;7.216;2023-05-07T12:29:15;27.00;55.16
65836;SHT30;52595;51.608;7.216;2023-05-07T12:31:41;27.07;54.90
65836;SHT30;52595;51.608;7.216;2023-05-07T12:34:07;27.57;54.94
65836;SHT30;52595;51.608;7.216;2023-05-07T12:36:40;28.45;52.32
65836;SHT30;52595;51.608;7.216;2023-05-07T12:39:08;28.11;53.05
65836;SHT30;52595;51.608;7.216;2023-05-07T12:41:54;28.31;53.42
65836;SHT30;52595;51.608;7.216;2023-05-07T12:44:22;28.53;53.31
65836;SHT30;52595;51.608;7.216;2023-05-07T12:46:47;27.76;54.67
65836;SHT30;52595;51.608;7.216;2023-05-07T12:49:13;27.23;55.11
65836;SHT30;52595;51.608;7.216;2023-05-07T12:51:38;26.95;55.19
65836;SHT30;52595;51.608;7.216;2023-05-07T12:54:04;26.26;56.39
65836;SHT30;52595;51.608;7.216;2023-05-07T12:56:35;25.82;57.69
65836;SHT30;52595;51.608;7.216;2023-05-07T12:59:01;25.33;58.66
65836;SHT30;52595;51.608;7.216;2023-05-07T13:01:30;25.67;59.18
65836;SHT30;52595;51.608;7.216;2023-05-07T13:04:00;25.20;59.15
65836;SHT30;52595;51.608;7.216;2023-05-07T13:06:26;25.44;59.45
65836;SHT30;52595;51.608;7.216;2023-05-07T13:08:51;25.36;59.22
65836;SHT30;52595;51.608;7.216;2023-05-07T13:11:16;24.92;60.91
65836;SHT30;52595;51.608;7.216;2023-05-07T13:13:42;24.95;61.63
65836;SHT30;52595;51.608;7.216;2023-05-07T13:16:09;24.95;60.98
65836;SHT30;52595;51.608;7.216;2023-05-07T13:18:35;24.80;61.60
65836;SHT30;52595;51.608;7.216;2023-05-07T13:21:01;24.14;62.52
65836;SHT30;52595;51.608;7.216;2023-05-07T13:23:28;23.96;63.47
65836;SHT30;52595;51.608;7.216;2023-05-07T13:25:53;24.08;63.36
65836;SHT30;52595;51.608;7.216;2023-05-07T13:28:19;23.96;63.55
65836;SHT30;52595;51.608;7.216;2023-05-07T13:30:45;23.69;64.03
65836;SHT30;52595;51.608;7.216;2023-05-07T13:33:11;23.26;64.62
65836;SHT30;52595;51.608;7.216;2023-05-07T13:35:36;23.23;65.03
65836;SHT30;52595;51.608;7.216;2023-05-07T13:38:02;23.20;64.51
65836;SHT30;52595;51.608;7.216;2023-05-07T13:40:28;23.27;65.22
65836;SHT30;52595;51.608;7.216;2023-05-07T13:42:53;23.38;64.84
65836;SHT30;52595;51.608;7.216;2023-05-07T13:45:19;23.26;65.86
65836;SHT30;52595;51.608;7.216;2023-05-07T13:47:45;23.36;65.09
65836;SHT30;52595;51.608;7.216;2023-05-07T13:50:12;23.08;66.13
65836;SHT30;52595;51.608;7.216;2023-05-07T13:52:40;23.02;65.63
65836;SHT30;52595;51.608;7.216;2023-05-07T13:55:06;22.72;67.22
65836;SHT30;52595;51.608;7.216;2023-05-07T13:57:32;22.76;67.10
65836;SHT30;52595;51.608;7.216;2023-05-07T13:59:57;22.68;66.72
65836;SHT30;52595;51.608;7.216;2023-05-07T14:02:23;22.76;65.80
65836;SHT30;52595;51.608;7.216;2023-05-07T14:04:48;22.44;67.10
65836;SHT30;52595;51.608;7.216;2023-05-07T14:07:13;22.33;67.47
65836;SHT30;52595;51.608;7.216;2023-05-07T14:09:39;22.21;67.33
65836;SHT30;52595;51.608;7.216;2023-05-07T14:12:05;22.21;67.42
65836;SHT30;52595;51.608;7.216;2023-05-07T14:14:30;22.10;67.25
65836;SHT30;52595;51.608;7.216;2023-05-07T14:16:56;21.79;67.80
65836;SHT30;52595;51.608;7.216;2023-05-07T14:19:22;21.71;68.80
65836;SHT30;52595;51.608;7.216;2023-05-07T14:21:48;21.69;69.13
65836;SHT30;52595;51.608;7.216;2023-05-07T14:24:13;21.67;69.32
65836;SHT30;52595;51.608;7.216;2023-05-07T14:26:39;21.59;69.50
65836;SHT30;52595;51.608;7.216;2023-05-07T14:29:04;21.50;69.39
65836;SHT30;52595;51.608;7.216;2023-05-07T14:31:30;21.45;69.77
65836;SHT30;52595;51.608;7.216;2023-05-07T14:33:55;21.32;69.85
65836;SHT30;52595;51.608;7.216;2023-05-07T14:36:23;21.23;69.67
65836;SHT30;52595;51.608;7.216;2023-05-07T14:38:52;21.08;69.84
65836;SHT30;52595;51.608;7.216;2023-05-07T14:41:19;21.02;70.37
65836;SHT30;52595;51.608;7.216;2023-05-07T14:43:44;21.02;70.89
65836;SHT30;52595;51.608;7.216;2023-05-07T14:46:17;21.00;70.42
65836;SHT30;52595;51.608;7.216;2023-05-07T14:48:44;20.92;71.04
65836;SHT30;52595;51.608;7.216;2023-05-07T14:51:10;20.69;71.22
65836;SHT30;52595;51.608;7.216;2023-05-07T14:53:36;20.71;73.57
65836;SHT30;52595;51.608;7.216;2023-05-07T14:56:01;20.14;80.39
65836;SHT30;52595;51.608;7.216;2023-05-07T14:58:27;19.26;85.65
65836;SHT30;52595;51.608;7.216;2023-05-07T15:00:52;18.75;89.00
65836;SHT30;52595;51.608;7.216;2023-05-07T15:03:17;18.33;89.00
65836;SHT30;52595;51.608;7.216;2023-05-07T15:05:43;18.09;90.73
65836;SHT30;52595;51.608;7.216;2023-05-07T15:08:08;17.92;91.31
65836;SHT30;52595;51.608;7.216;2023-05-07T15:10:37;17.75;90.25
65836;SHT30;52595;51.608;7.216;2023-05-07T15:13:10;17.73;90.60
65836;SHT30;52595;51.608;7.216;2023-05-07T15:15:35;17.83;90.86
65836;SHT30;52595;51.608;7.216;2023-05-07T15:18:01;17.87;91.64
65836;SHT30;52595;51.608;7.216;2023-05-07T15:20:27;17.92;91.04
65836;SHT30;52595;51.608;7.216;2023-05-07T15:22:52;18.04;91.58
65836;SHT30;52595;51.608;7.216;2023-05-07T15:25:18;18.13;91.24
65836;SHT30;52595;51.608;7.216;2023-05-07T15:27:43;18.33;92.10
65836;SHT30;52595;51.608;7.216;2023-05-07T15:30:09;18.41;91.32
65836;SHT30;52595;51.608;7.216;2023-05-07T15:32:36;18.50;89.87